sensor_id;sensor_type;location;lat;lon;timestamp;P1;durP1;ratioP1;P2;durP2;ratioP2
7929;SDS011;4010;42.698;23.124;2022-11-15T00:01:07;34.57;;;19.77;;
7929;SDS011;4010;42.698;23.124;2022-11-15T00:03:34;31.80;;;18.27;;
7929;SDS011;4010;42.698;23.124;2022-11-15T00:06:02;32.30;;;18.10;;
7929;SDS011;4010;42.698;23.124;2022-11-15T00:08:30;24.13;;;14.90;;
7929;SDS011;4010;42.698;23.124;2022-11-15T00:10:58;35.53;;;18.57;;
7929;SDS011;4010;42.698;23.124;2022-11-15T00:13:26;31.80;;;17.80;;
7929;SDS011;4010;42.698;23.124;2022-11-15T00:15:53;25.80;;;15.97;;
7929;SDS011;4010;42.698;23.124;2022-11-15T00:18:23;31.47;;;17.77;;
7929;SDS011;4010;42.698;23.124;2022-11-15T00:20:50;29.65;;;18.58;;
7929;SDS011;4010;42.698;23.124;2022-11-15T00:23:18;34.23;;;18.97;;
7929;SDS011;4010;42.698;23.124;2022-11-15T00:25:45;28.67;;;17.63;;
7929;SDS011;4010;42.698;23.124;2022-11-15T00:28:11;31.95;;;18.50;;
7929;SDS011;4010;42.698;23.124;2022-11-15T00:30:38;34.70;;;18.87;;
7929;SDS011;4010;42.698;23.124;2022-11-15T00:33:05;31.67;;;18.33;;
7929;SDS011;4010;42.698;23.124;2022-11-15T00:35:32;34.53;;;17.48;;
7929;SDS011;4010;42.698;23.124;2022-11-15T00:38:00;33.60;;;17.42;;
7929;SDS011;4010;42.698;23.124;2022-11-15T00:40:29;29.35;;;16.95;;
7929;SDS011;4010;42.698;23.124;2022-11-15T00:42:56;30.37;;;15.90;;
7929;SDS011;4010;42.698;23.124;2022-11-15T00:45:23;28.90;;;16.27;;
7929;SDS011;4010;42.698;23.124;2022-11-15T00:47:50;24.88;;;13.85;;
7929;SDS011;4010;42.698;23.124;2022-11-15T00:50:17;23.60;;;13.80;;
7929;SDS011;4010;42.698;23.124;2022-11-15T00:52:44;30.65;;;15.02;;
7929;SDS011;4010;42.698;23.124;2022-11-15T00:55:12;29.45;;;14.02;;
7929;SDS011;4010;42.698;23.124;2022-11-15T00:57:41;23.37;;;14.80;;
7929;SDS011;4010;42.698;23.124;2022-11-15T01:00:08;28.40;;;15.32;;
7929;SDS011;4010;42.698;23.124;2022-11-15T01:02:35;23.20;;;13.57;;
7929;SDS011;4010;42.698;23.124;2022-11-15T01:05:02;24.10;;;13.83;;
7929;SDS011;4010;42.698;23.124;2022-11-15T01:07:30;30.87;;;16.03;;
7929;SDS011;4010;42.698;23.124;2022-11-15T01:09:56;29.33;;;16.77;;
7929;SDS011;4010;42.698;23.124;2022-11-15T01:12:23;24.97;;;14.83;;
7929;SDS011;4010;42.698;23.124;2022-11-15T01:14:51;28.65;;;15.82;;
7929;SDS011;4010;42.698;23.124;2022-11-15T01:17:18;23.08;;;13.63;;
7929;SDS011;4010;42.698;23.124;2022-11-15T01:19:45;22.20;;;14.40;;
7929;SDS011;4010;42.698;23.124;2022-11-15T01:22:12;25.92;;;14.23;;
7929;SDS011;4010;42.698;23.124;2022-11-15T01:24:39;28.85;;;15.60;;
7929;SDS011;4010;42.698;23.124;2022-11-15T01:27:06;26.42;;;14.77;;
7929;SDS011;4010;42.698;23.124;2022-11-15T01:29:33;21.30;;;12.57;;
7929;SDS011;4010;42.698;23.124;2022-11-15T01:32:01;21.75;;;13.23;;
7929;SDS011;4010;42.698;23.124;2022-11-15T01:34:28;28.92;;;15.50;;
7929;SDS011;4010;42.698;23.124;2022-11-15T01:36:54;24.15;;;14.63;;
7929;SDS011;4010;42.698;23.124;2022-11-15T01:39:21;24.83;;;13.70;;
7929;SDS011;4010;42.698;23.124;2022-11-15T01:41:48;22.02;;;13.63;;
7929;SDS011;4010;42.698;23.124;2022-11-15T01:47:12;22.63;;;13.33;;
7929;SDS011;4010;42.698;23.124;2022-11-15T01:49:45;22.60;;;14.77;;
7929;SDS011;4010;42.698;23.124;2022-11-15T01:52:17;27.53;;;14.97;;
7929;SDS011;4010;42.698;23.124;2022-11-15T01:54:46;29.00;;;15.13;;
7929;SDS011;4010;42.698;23.124;2022-11-15T01:57:15;25.52;;;14.90;;
7929;SDS011;4010;42.698;23.124;2022-11-15T01:59:42;26.40;;;15.27;;
7929;SDS011;4010;42.698;23.124;2022-11-15T02:02:12;29.55;;;17.70;;
7929;SDS011;4010;42.698;23.124;2022-11-15T02:04:41;32.15;;;16.90;;
7929;SDS011;4010;42.698;23.124;2022-11-15T02:07:09;28.63;;;14.90;;
7929;SDS011;4010;42.698;23.124;2022-11-15T02:09:38;27.27;;;16.05;;
7929;SDS011;4010;42.698;23.124;2022-11-15T02:12:06;27.23;;;15.70;;
7929;SDS011;4010;42.698;23.124;2022-11-15T02:14:35;26.37;;;15.97;;
7929;SDS011;4010;42.698;23.124;2022-11-15T02:17:06;25.00;;;14.33;;
7929;SDS011;4010;42.698;23.124;2022-11-15T02:22:50;20.05;;;13.02;;
7929;SDS011;4010;42.698;23.124;2022-11-15T02:25:36;26.17;;;14.48;;
7929;SDS011;4010;42.698;23.124;2022-11-15T02:28:10;28.10;;;15.23;;
7929;SDS011;4010;42.698;23.124;2022-11-15T02:31:00;26.00;;;14.65;;
7929;SDS011;4010;42.698;23.124;2022-11-15T02:33:34;23.40;;;14.20;;
7929;SDS011;4010;42.698;23.124;2022-11-15T02:36:07;26.00;;;15.18;;
7929;SDS011;4010;42.698;23.124;2022-11-15T02:38:43;29.98;;;16.40;;
7929;SDS011;4010;42.698;23.124;2022-11-15T02:41:20;21.85;;;14.13;;
7929;SDS011;4010;42.698;23.124;2022-11-15T02:43:53;25.13;;;14.85;;
7929;SDS011;4010;42.698;23.124;2022-11-15T02:46:27;21.35;;;12.50;;
7929;SDS011;4010;42.698;23.124;2022-11-15T02:49:15;19.65;;;12.45;;
7929;SDS011;4010;42.698;23.124;2022-11-15T02:51:42;23.17;;;11.75;;
7929;SDS011;4010;42.698;23.124;2022-11-15T02:54:14;20.60;;;11.57;;
7929;SDS011;4010;42.698;23.124;2022-11-15T02:56:47;21.65;;;11.02;;
7929;SDS011;4010;42.698;23.124;2022-11-15T02:59:30;19.43;;;12.10;;
7929;SDS011;4010;42.698;23.124;2022-11-15T03:02:23;23.95;;;12.10;;
7929;SDS011;4010;42.698;23.124;2022-11-15T03:05:03;20.17;;;12.15;;
7929;SDS011;4010;42.698;23.124;2022-11-15T03:07:36;21.35;;;13.20;;
7929;SDS011;4010;42.698;23.124;2022-11-15T03:10:10;20.10;;;11.00;;
7929;SDS011;4010;42.698;23.124;2022-11-15T03:12:45;19.38;;;9.98;;
7929;SDS011;4010;42.698;23.124;2022-11-15T03:15:17;14.45;;;9.02;;
7929;SDS011;4010;42.698;23.124;2022-11-15T03:17:49;18.98;;;9.60;;
7929;SDS011;4010;42.698;23.124;2022-11-15T03:20:21;15.55;;;9.75;;
7929;SDS011;4010;42.698;23.124;2022-11-15T03:22:50;16.52;;;10.07;;
7929;SDS011;4010;42.698;23.124;2022-11-15T03:25:19;16.15;;;9.48;;
7929;SDS011;4010;42.698;23.124;2022-11-15T03:27:50;14.73;;;8.10;;
7929;SDS011;4010;42.698;23.124;2022-11-15T03:30:19;21.25;;;9.95;;
7929;SDS011;4010;42.698;23.124;2022-11-15T03:32:46;19.83;;;11.43;;
7929;SDS011;4010;42.698;23.124;2022-11-15T03:35:18;19.58;;;10.77;;
7929;SDS011;4010;42.698;23.124;2022-11-15T03:37:48;19.38;;;11.32;;
7929;SDS011;4010;42.698;23.124;2022-11-15T03:40:21;22.20;;;10.90;;
7929;SDS011;4010;42.698;23.124;2022-11-15T03:42:52;19.75;;;10.77;;
7929;SDS011;4010;42.698;23.124;2022-11-15T03:45:28;19.05;;;10.43;;
7929;SDS011;4010;42.698;23.124;2022-11-15T03:48:01;20.05;;;9.85;;
7929;SDS011;4010;42.698;23.124;2022-11-15T03:50:35;18.58;;;10.85;;
7929;SDS011;4010;42.698;23.124;2022-11-15T03:53:02;19.33;;;11.23;;
7929;SDS011;4010;42.698;23.124;2022-11-15T03:55:31;19.50;;;11.23;;
7929;SDS011;4010;42.698;23.124;2022-11-15T03:57:59;18.92;;;11.45;;
7929;SDS011;4010;42.698;23.124;2022-11-15T04:00:27;15.35;;;10.02;;
7929;SDS011;4010;42.698;23.124;2022-11-15T04:02:54;20.03;;;10.63;;
7929;SDS011;4010;42.698;23.124;2022-11-15T04:05:22;17.92;;;12.02;;
7929;SDS011;4010;42.698;23.124;2022-11-15T04:07:49;18.45;;;11.55;;
7929;SDS011;4010;42.698;23.124;2022-11-15T04:10:16;22.17;;;12.33;;
7929;SDS011;4010;42.698;23.124;2022-11-15T04:12:43;19.30;;;10.57;;
7929;SDS011;4010;42.698;23.124;2022-11-15T04:15:13;19.15;;;10.82;;
7929;SDS011;4010;42.698;23.124;2022-11-15T04:17:42;18.70;;;11.43;;
7929;SDS011;4010;42.698;23.124;2022-11-15T04:20:10;18.50;;;10.73;;
7929;SDS011;4010;42.698;23.124;2022-11-15T04:22:57;18.27;;;10.50;;
7929;SDS011;4010;42.698;23.124;2022-11-15T04:25:43;17.80;;;10.87;;
7929;SDS011;4010;42.698;23.124;2022-11-15T04:28:11;21.63;;;10.40;;
7929;SDS011;4010;42.698;23.124;2022-11-15T04:30:38;20.60;;;11.37;;
7929;SDS011;4010;42.698;23.124;2022-11-15T04:33:05;19.13;;;11.83;;
7929;SDS011;4010;42.698;23.124;2022-11-15T04:35:32;20.83;;;12.63;;
7929;SDS011;4010;42.698;23.124;2022-11-15T04:38:00;23.40;;;12.30;;
7929;SDS011;4010;42.698;23.124;2022-11-15T04:40:27;19.70;;;11.90;;
7929;SDS011;4010;42.698;23.124;2022-11-15T04:42:53;22.77;;;12.50;;
7929;SDS011;4010;42.698;23.124;2022-11-15T04:45:21;25.50;;;12.17;;
7929;SDS011;4010;42.698;23.124;2022-11-15T04:47:48;24.60;;;13.07;;
7929;SDS011;4010;42.698;23.124;2022-11-15T04:50:15;136.27;;;21.50;;
7929;SDS011;4010;42.698;23.124;2022-11-15T04:52:42;40.67;;;15.57;;
7929;SDS011;4010;42.698;23.124;2022-11-15T04:55:11;66.83;;;17.77;;
7929;SDS011;4010;42.698;23.124;2022-11-15T04:57:38;34.83;;;15.60;;
7929;SDS011;4010;42.698;23.124;2022-11-15T05:00:06;135.50;;;27.60;;
7929;SDS011;4010;42.698;23.124;2022-11-15T05:02:34;90.73;;;20.30;;
7929;SDS011;4010;42.698;23.124;2022-11-15T05:05:18;93.97;;;19.77;;
7929;SDS011;4010;42.698;23.124;2022-11-15T05:07:45;146.37;;;25.70;;
7929;SDS011;4010;42.698;23.124;2022-11-15T05:10:13;132.20;;;28.67;;
7929;SDS011;4010;42.698;23.124;2022-11-15T05:12:40;83.60;;;22.50;;
7929;SDS011;4010;42.698;23.124;2022-11-15T05:15:07;110.47;;;23.73;;
7929;SDS011;4010;42.698;23.124;2022-11-15T05:17:34;110.80;;;20.63;;
7929;SDS011;4010;42.698;23.124;2022-11-15T05:20:00;77.87;;;16.87;;
7929;SDS011;4010;42.698;23.124;2022-11-15T05:22:28;52.63;;;17.23;;
7929;SDS011;4010;42.698;23.124;2022-11-15T05:24:54;42.77;;;17.83;;
7929;SDS011;4010;42.698;23.124;2022-11-15T05:27:23;36.53;;;17.73;;
7929;SDS011;4010;42.698;23.124;2022-11-15T05:29:49;66.80;;;21.03;;
7929;SDS011;4010;42.698;23.124;2022-11-15T05:32:16;102.00;;;24.60;;
7929;SDS011;4010;42.698;23.124;2022-11-15T05:34:43;115.33;;;22.97;;
7929;SDS011;4010;42.698;23.124;2022-11-15T05:37:11;111.83;;;25.17;;
7929;SDS011;4010;42.698;23.124;2022-11-15T05:39:38;94.47;;;21.17;;
7929;SDS011;4010;42.698;23.124;2022-11-15T05:42:05;108.83;;;22.17;;
7929;SDS011;4010;42.698;23.124;2022-11-15T05:44:37;94.07;;;20.43;;
7929;SDS011;4010;42.698;23.124;2022-11-15T05:47:08;64.80;;;19.53;;
7929;SDS011;4010;42.698;23.124;2022-11-15T05:49:38;118.90;;;19.83;;
7929;SDS011;4010;42.698;23.124;2022-11-15T05:52:08;85.70;;;19.53;;
7929;SDS011;4010;42.698;23.124;2022-11-15T05:54:39;71.77;;;16.20;;
7929;SDS011;4010;42.698;23.124;2022-11-15T05:57:06;72.30;;;17.13;;
7929;SDS011;4010;42.698;23.124;2022-11-15T05:59:33;88.57;;;16.53;;
7929;SDS011;4010;42.698;23.124;2022-11-15T06:02:02;78.87;;;16.60;;
7929;SDS011;4010;42.698;23.124;2022-11-15T06:04:29;89.67;;;16.53;;
7929;SDS011;4010;42.698;23.124;2022-11-15T06:06:56;66.77;;;17.53;;
7929;SDS011;4010;42.698;23.124;2022-11-15T06:09:24;65.83;;;16.87;;
7929;SDS011;4010;42.698;23.124;2022-11-15T06:11:51;61.30;;;18.40;;
7929;SDS011;4010;42.698;23.124;2022-11-15T06:14:18;65.13;;;16.40;;
7929;SDS011;4010;42.698;23.124;2022-11-15T06:16:44;71.73;;;15.90;;
7929;SDS011;4010;42.698;23.124;2022-11-15T06:19:12;102.33;;;16.73;;
7929;SDS011;4010;42.698;23.124;2022-11-15T06:21:39;99.03;;;17.17;;
7929;SDS011;4010;42.698;23.124;2022-11-15T06:24:06;125.47;;;17.03;;
7929;SDS011;4010;42.698;23.124;2022-11-15T06:26:33;121.10;;;17.20;;
7929;SDS011;4010;42.698;23.124;2022-11-15T06:28:59;96.17;;;16.87;;
7929;SDS011;4010;42.698;23.124;2022-11-15T06:31:28;93.67;;;16.73;;
7929;SDS011;4010;42.698;23.124;2022-11-15T06:33:54;114.50;;;25.00;;
7929;SDS011;4010;42.698;23.124;2022-11-15T06:36:22;121.77;;;17.70;;
7929;SDS011;4010;42.698;23.124;2022-11-15T06:38:49;132.20;;;22.30;;
7929;SDS011;4010;42.698;23.124;2022-11-15T06:41:25;144.10;;;19.23;;
7929;SDS011;4010;42.698;23.124;2022-11-15T06:43:52;166.50;;;20.27;;
7929;SDS011;4010;42.698;23.124;2022-11-15T06:46:19;151.60;;;18.90;;
7929;SDS011;4010;42.698;23.124;2022-11-15T06:48:45;112.57;;;16.67;;
7929;SDS011;4010;42.698;23.124;2022-11-15T06:51:12;118.43;;;17.47;;
7929;SDS011;4010;42.698;23.124;2022-11-15T06:53:40;87.13;;;17.37;;
7929;SDS011;4010;42.698;23.124;2022-11-15T06:56:07;154.87;;;24.40;;
7929;SDS011;4010;42.698;23.124;2022-11-15T06:58:34;125.97;;;20.37;;
7929;SDS011;4010;42.698;23.124;2022-11-15T07:01:01;129.63;;;39.73;;
7929;SDS011;4010;42.698;23.124;2022-11-15T07:03:29;93.90;;;16.70;;
7929;SDS011;4010;42.698;23.124;2022-11-15T07:05:56;138.20;;;26.90;;
7929;SDS011;4010;42.698;23.124;2022-11-15T07:08:23;169.07;;;26.10;;
7929;SDS011;4010;42.698;23.124;2022-11-15T07:10:51;136.63;;;26.33;;
7929;SDS011;4010;42.698;23.124;2022-11-15T07:13:18;143.03;;;27.50;;
7929;SDS011;4010;42.698;23.124;2022-11-15T07:15:45;102.33;;;23.10;;
7929;SDS011;4010;42.698;23.124;2022-11-15T07:18:11;138.17;;;23.57;;
7929;SDS011;4010;42.698;23.124;2022-11-15T07:20:38;101.57;;;17.07;;
7929;SDS011;4010;42.698;23.124;2022-11-15T07:23:05;81.87;;;16.07;;
7929;SDS011;4010;42.698;23.124;2022-11-15T07:25:32;178.83;;;21.23;;
7929;SDS011;4010;42.698;23.124;2022-11-15T07:28:00;98.83;;;18.37;;
7929;SDS011;4010;42.698;23.124;2022-11-15T07:30:28;189.13;;;21.23;;
7929;SDS011;4010;42.698;23.124;2022-11-15T07:32:56;118.40;;;18.80;;
7929;SDS011;4010;42.698;23.124;2022-11-15T07:35:23;84.57;;;19.30;;
7929;SDS011;4010;42.698;23.124;2022-11-15T07:37:55;96.43;;;18.90;;
7929;SDS011;4010;42.698;23.124;2022-11-15T07:40:22;180.73;;;21.50;;
7929;SDS011;4010;42.698;23.124;2022-11-15T07:42:49;109.80;;;18.97;;
7929;SDS011;4010;42.698;23.124;2022-11-15T07:45:20;167.27;;;22.37;;
7929;SDS011;4010;42.698;23.124;2022-11-15T07:47:47;128.90;;;21.47;;
7929;SDS011;4010;42.698;23.124;2022-11-15T07:50:14;152.57;;;20.30;;
7929;SDS011;4010;42.698;23.124;2022-11-15T07:52:41;141.20;;;20.93;;
7929;SDS011;4010;42.698;23.124;2022-11-15T07:55:08;98.90;;;19.23;;
7929;SDS011;4010;42.698;23.124;2022-11-15T07:57:35;57.67;;;19.67;;
7929;SDS011;4010;42.698;23.124;2022-11-15T08:00:02;85.13;;;20.20;;
7929;SDS011;4010;42.698;23.124;2022-11-15T08:02:32;63.70;;;18.57;;
7929;SDS011;4010;42.698;23.124;2022-11-15T08:04:58;85.20;;;18.73;;
7929;SDS011;4010;42.698;23.124;2022-11-15T08:07:26;83.80;;;19.00;;
7929;SDS011;4010;42.698;23.124;2022-11-15T08:09:54;58.63;;;18.13;;
7929;SDS011;4010;42.698;23.124;2022-11-15T08:12:21;43.77;;;18.50;;
7929;SDS011;4010;42.698;23.124;2022-11-15T08:14:48;45.57;;;17.57;;
7929;SDS011;4010;42.698;23.124;2022-11-15T08:17:14;35.13;;;16.37;;
7929;SDS011;4010;42.698;23.124;2022-11-15T08:19:42;52.77;;;18.27;;
7929;SDS011;4010;42.698;23.124;2022-11-15T08:22:09;37.37;;;16.27;;
7929;SDS011;4010;42.698;23.124;2022-11-15T08:24:36;42.17;;;17.57;;
7929;SDS011;4010;42.698;23.124;2022-11-15T08:27:03;42.10;;;18.33;;
7929;SDS011;4010;42.698;23.124;2022-11-15T08:29:29;52.43;;;18.23;;
7929;SDS011;4010;42.698;23.124;2022-11-15T08:31:56;74.17;;;18.67;;
7929;SDS011;4010;42.698;23.124;2022-11-15T08:34:23;52.57;;;18.10;;
7929;SDS011;4010;42.698;23.124;2022-11-15T08:36:51;40.47;;;18.97;;
7929;SDS011;4010;42.698;23.124;2022-11-15T08:39:17;80.73;;;18.70;;
7929;SDS011;4010;42.698;23.124;2022-11-15T08:41:44;98.73;;;19.00;;
7929;SDS011;4010;42.698;23.124;2022-11-15T08:44:17;79.23;;;18.40;;
7929;SDS011;4010;42.698;23.124;2022-11-15T08:46:45;60.73;;;16.00;;
7929;SDS011;4010;42.698;23.124;2022-11-15T08:49:11;31.80;;;16.37;;
7929;SDS011;4010;42.698;23.124;2022-11-15T08:51:38;96.73;;;19.43;;
7929;SDS011;4010;42.698;23.124;2022-11-15T08:54:06;52.73;;;17.13;;
7929;SDS011;4010;42.698;23.124;2022-11-15T08:56:33;66.13;;;18.67;;
7929;SDS011;4010;42.698;23.124;2022-11-15T08:59:00;90.53;;;17.37;;
7929;SDS011;4010;42.698;23.124;2022-11-15T09:01:27;45.33;;;17.33;;
7929;SDS011;4010;42.698;23.124;2022-11-15T09:03:53;96.67;;;31.40;;
7929;SDS011;4010;42.698;23.124;2022-11-15T09:06:20;187.60;;;62.83;;
7929;SDS011;4010;42.698;23.124;2022-11-15T09:08:47;207.17;;;77.67;;
7929;SDS011;4010;42.698;23.124;2022-11-15T09:13:47;56.03;;;20.47;;
7929;SDS011;4010;42.698;23.124;2022-11-15T09:16:14;54.17;;;19.50;;
7929;SDS011;4010;42.698;23.124;2022-11-15T09:18:41;50.30;;;19.67;;
7929;SDS011;4010;42.698;23.124;2022-11-15T09:21:08;31.83;;;17.27;;
7929;SDS011;4010;42.698;23.124;2022-11-15T09:23:35;30.10;;;17.20;;
7929;SDS011;4010;42.698;23.124;2022-11-15T09:26:02;36.17;;;17.27;;
7929;SDS011;4010;42.698;23.124;2022-11-15T09:28:32;55.97;;;17.70;;
7929;SDS011;4010;42.698;23.124;2022-11-15T09:31:00;38.00;;;19.47;;
7929;SDS011;4010;42.698;23.124;2022-11-15T09:33:27;32.03;;;16.47;;
7929;SDS011;4010;42.698;23.124;2022-11-15T09:36:00;58.03;;;16.90;;
7929;SDS011;4010;42.698;23.124;2022-11-15T09:38:27;57.53;;;18.60;;
7929;SDS011;4010;42.698;23.124;2022-11-15T09:40:57;57.00;;;18.23;;
7929;SDS011;4010;42.698;23.124;2022-11-15T09:43:42;30.63;;;17.90;;
7929;SDS011;4010;42.698;23.124;2022-11-15T09:46:18;50.27;;;17.33;;
7929;SDS011;4010;42.698;23.124;2022-11-15T09:48:53;35.33;;;19.40;;
7929;SDS011;4010;42.698;23.124;2022-11-15T09:51:26;31.73;;;17.87;;
7929;SDS011;4010;42.698;23.124;2022-11-15T09:54:01;53.73;;;18.13;;
7929;SDS011;4010;42.698;23.124;2022-11-15T09:56:32;37.30;;;20.77;;
7929;SDS011;4010;42.698;23.124;2022-11-15T09:59:08;35.60;;;17.27;;
7929;SDS011;4010;42.698;23.124;2022-11-15T10:01:49;27.33;;;15.23;;
7929;SDS011;4010;42.698;23.124;2022-11-15T10:04:23;37.37;;;15.53;;
7929;SDS011;4010;42.698;23.124;2022-11-15T10:06:53;31.00;;;15.90;;
7929;SDS011;4010;42.698;23.124;2022-11-15T10:09:28;30.70;;;16.27;;
7929;SDS011;4010;42.698;23.124;2022-11-15T10:12:01;29.13;;;16.33;;
7929;SDS011;4010;42.698;23.124;2022-11-15T10:14:31;28.60;;;16.03;;
7929;SDS011;4010;42.698;23.124;2022-11-15T10:17:02;31.67;;;16.90;;
7929;SDS011;4010;42.698;23.124;2022-11-15T10:19:50;30.17;;;16.33;;
7929;SDS011;4010;42.698;23.124;2022-11-15T10:22:26;28.93;;;16.23;;
7929;SDS011;4010;42.698;23.124;2022-11-15T10:25:10;34.23;;;15.97;;
7929;SDS011;4010;42.698;23.124;2022-11-15T10:27:42;28.93;;;16.60;;
7929;SDS011;4010;42.698;23.124;2022-11-15T10:30:16;30.70;;;16.60;;
7929;SDS011;4010;42.698;23.124;2022-11-15T10:32:45;25.27;;;16.07;;
7929;SDS011;4010;42.698;23.124;2022-11-15T10:35:23;28.17;;;15.07;;
7929;SDS011;4010;42.698;23.124;2022-11-15T10:37:52;25.50;;;15.13;;
7929;SDS011;4010;42.698;23.124;2022-11-15T10:40:31;30.77;;;16.93;;
7929;SDS011;4010;42.698;23.124;2022-11-15T10:43:04;29.77;;;17.47;;
7929;SDS011;4010;42.698;23.124;2022-11-15T10:45:34;29.53;;;17.27;;
7929;SDS011;4010;42.698;23.124;2022-11-15T10:48:24;30.80;;;18.13;;
7929;SDS011;4010;42.698;23.124;2022-11-15T10:50:52;29.37;;;17.57;;
7929;SDS011;4010;42.698;23.124;2022-11-15T10:53:21;30.57;;;17.97;;
7929;SDS011;4010;42.698;23.124;2022-11-15T10:55:51;32.33;;;16.60;;
7929;SDS011;4010;42.698;23.124;2022-11-15T10:58:21;28.63;;;16.97;;
7929;SDS011;4010;42.698;23.124;2022-11-15T11:00:57;30.77;;;17.47;;
7929;SDS011;4010;42.698;23.124;2022-11-15T11:03:36;31.30;;;17.70;;
7929;SDS011;4010;42.698;23.124;2022-11-15T11:06:06;33.33;;;20.00;;
7929;SDS011;4010;42.698;23.124;2022-11-15T11:08:34;35.70;;;18.50;;
7929;SDS011;4010;42.698;23.124;2022-11-15T11:11:02;36.50;;;18.73;;
7929;SDS011;4010;42.698;23.124;2022-11-15T11:13:31;36.27;;;19.60;;
7929;SDS011;4010;42.698;23.124;2022-11-15T11:16:05;41.40;;;22.73;;
7929;SDS011;4010;42.698;23.124;2022-11-15T11:18:48;35.47;;;20.37;;
7929;SDS011;4010;42.698;23.124;2022-11-15T11:21:23;32.27;;;19.67;;
7929;SDS011;4010;42.698;23.124;2022-11-15T11:23:58;38.70;;;20.80;;
7929;SDS011;4010;42.698;23.124;2022-11-15T11:26:35;36.70;;;19.87;;
7929;SDS011;4010;42.698;23.124;2022-11-15T11:29:14;44.20;;;22.37;;
7929;SDS011;4010;42.698;23.124;2022-11-15T11:31:53;41.50;;;21.90;;
7929;SDS011;4010;42.698;23.124;2022-11-15T11:34:29;52.00;;;29.50;;
7929;SDS011;4010;42.698;23.124;2022-11-15T11:37:09;40.90;;;22.07;;
7929;SDS011;4010;42.698;23.124;2022-11-15T11:39:43;43.40;;;23.40;;
7929;SDS011;4010;42.698;23.124;2022-11-15T11:42:23;44.90;;;24.53;;
7929;SDS011;4010;42.698;23.124;2022-11-15T11:44:58;48.63;;;24.73;;
7929;SDS011;4010;42.698;23.124;2022-11-15T11:47:39;53.30;;;27.10;;
7929;SDS011;4010;42.698;23.124;2022-11-15T11:50:10;52.63;;;26.93;;
7929;SDS011;4010;42.698;23.124;2022-11-15T11:52:43;56.77;;;29.10;;
7929;SDS011;4010;42.698;23.124;2022-11-15T11:55:19;50.90;;;28.23;;
7929;SDS011;4010;42.698;23.124;2022-11-15T11:57:55;59.53;;;29.87;;
7929;SDS011;4010;42.698;23.124;2022-11-15T12:00:31;61.67;;;30.97;;
7929;SDS011;4010;42.698;23.124;2022-11-15T12:03:07;65.60;;;30.73;;
7929;SDS011;4010;42.698;23.124;2022-11-15T12:05:39;63.33;;;31.27;;
7929;SDS011;4010;42.698;23.124;2022-11-15T12:08:17;63.97;;;32.53;;
7929;SDS011;4010;42.698;23.124;2022-11-15T12:10:53;67.23;;;32.17;;
7929;SDS011;4010;42.698;23.124;2022-11-15T12:13:25;76.63;;;31.87;;
7929;SDS011;4010;42.698;23.124;2022-11-15T12:15:59;67.17;;;33.93;;
7929;SDS011;4010;42.698;23.124;2022-11-15T12:18:33;63.60;;;32.43;;
7929;SDS011;4010;42.698;23.124;2022-11-15T12:21:00;59.73;;;31.87;;
7929;SDS011;4010;42.698;23.124;2022-11-15T12:23:37;64.30;;;34.17;;
7929;SDS011;4010;42.698;23.124;2022-11-15T12:26:09;74.53;;;35.87;;
7929;SDS011;4010;42.698;23.124;2022-11-15T12:28:43;63.93;;;34.57;;
7929;SDS011;4010;42.698;23.124;2022-11-15T12:31:15;66.57;;;33.70;;
7929;SDS011;4010;42.698;23.124;2022-11-15T12:33:48;71.93;;;35.87;;
7929;SDS011;4010;42.698;23.124;2022-11-15T12:36:30;74.80;;;36.70;;
7929;SDS011;4010;42.698;23.124;2022-11-15T12:39:03;74.87;;;37.23;;
7929;SDS011;4010;42.698;23.124;2022-11-15T12:41:31;77.83;;;37.70;;
7929;SDS011;4010;42.698;23.124;2022-11-15T12:43:59;68.03;;;35.53;;
7929;SDS011;4010;42.698;23.124;2022-11-15T12:49:43;75.67;;;37.80;;
7929;SDS011;4010;42.698;23.124;2022-11-15T12:52:11;80.23;;;39.37;;
7929;SDS011;4010;42.698;23.124;2022-11-15T12:57:47;86.93;;;40.13;;
7929;SDS011;4010;42.698;23.124;2022-11-15T13:03:25;78.03;;;41.33;;
7929;SDS011;4010;42.698;23.124;2022-11-15T13:06:00;80.17;;;40.97;;
7929;SDS011;4010;42.698;23.124;2022-11-15T13:08:46;81.93;;;39.50;;
7929;SDS011;4010;42.698;23.124;2022-11-15T13:20:08;74.77;;;39.83;;
7929;SDS011;4010;42.698;23.124;2022-11-15T13:22:46;77.80;;;39.97;;
7929;SDS011;4010;42.698;23.124;2022-11-15T13:25:48;83.30;;;39.07;;
7929;SDS011;4010;42.698;23.124;2022-11-15T13:28:26;72.93;;;39.40;;
7929;SDS011;4010;42.698;23.124;2022-11-15T13:30:58;68.07;;;39.60;;
7929;SDS011;4010;42.698;23.124;2022-11-15T13:33:28;74.33;;;37.47;;
7929;SDS011;4010;42.698;23.124;2022-11-15T13:35:58;67.17;;;36.40;;
7929;SDS011;4010;42.698;23.124;2022-11-15T13:38:29;74.13;;;37.03;;
7929;SDS011;4010;42.698;23.124;2022-11-15T13:40:57;67.13;;;37.00;;
7929;SDS011;4010;42.698;23.124;2022-11-15T13:43:29;70.20;;;34.87;;
7929;SDS011;4010;42.698;23.124;2022-11-15T13:46:03;68.57;;;36.00;;
7929;SDS011;4010;42.698;23.124;2022-11-15T13:48:36;67.03;;;35.87;;
7929;SDS011;4010;42.698;23.124;2022-11-15T13:51:03;67.30;;;35.93;;
7929;SDS011;4010;42.698;23.124;2022-11-15T13:53:42;74.50;;;36.07;;
7929;SDS011;4010;42.698;23.124;2022-11-15T13:56:13;59.10;;;34.73;;
7929;SDS011;4010;42.698;23.124;2022-11-15T13:58:41;73.47;;;37.00;;
7929;SDS011;4010;42.698;23.124;2022-11-15T14:01:11;75.90;;;34.97;;
7929;SDS011;4010;42.698;23.124;2022-11-15T14:03:46;70.83;;;36.13;;
7929;SDS011;4010;42.698;23.124;2022-11-15T14:06:16;61.13;;;33.43;;
7929;SDS011;4010;42.698;23.124;2022-11-15T14:08:59;60.27;;;32.50;;
7929;SDS011;4010;42.698;23.124;2022-11-15T14:11:28;64.77;;;33.87;;
7929;SDS011;4010;42.698;23.124;2022-11-15T14:14:11;57.07;;;32.80;;
7929;SDS011;4010;42.698;23.124;2022-11-15T14:16:41;61.70;;;32.87;;
7929;SDS011;4010;42.698;23.124;2022-11-15T14:19:10;59.37;;;32.43;;
7929;SDS011;4010;42.698;23.124;2022-11-15T14:21:37;58.90;;;31.60;;
7929;SDS011;4010;42.698;23.124;2022-11-15T14:24:36;65.00;;;33.33;;
7929;SDS011;4010;42.698;23.124;2022-11-15T14:29:46;63.10;;;32.47;;
7929;SDS011;4010;42.698;23.124;2022-11-15T14:32:14;56.00;;;30.57;;
7929;SDS011;4010;42.698;23.124;2022-11-15T14:34:42;60.90;;;32.57;;
7929;SDS011;4010;42.698;23.124;2022-11-15T14:37:16;62.53;;;33.50;;
7929;SDS011;4010;42.698;23.124;2022-11-15T14:39:48;61.67;;;33.07;;
7929;SDS011;4010;42.698;23.124;2022-11-15T14:42:15;67.80;;;32.83;;
7929;SDS011;4010;42.698;23.124;2022-11-15T14:44:42;56.77;;;32.47;;
7929;SDS011;4010;42.698;23.124;2022-11-15T14:47:09;61.27;;;32.10;;
7929;SDS011;4010;42.698;23.124;2022-11-15T14:49:36;61.33;;;33.20;;
7929;SDS011;4010;42.698;23.124;2022-11-15T14:52:04;65.23;;;34.00;;
7929;SDS011;4010;42.698;23.124;2022-11-15T14:54:42;53.67;;;30.53;;
7929;SDS011;4010;42.698;23.124;2022-11-15T14:57:10;60.77;;;34.77;;
7929;SDS011;4010;42.698;23.124;2022-11-15T14:59:37;61.47;;;34.10;;
7929;SDS011;4010;42.698;23.124;2022-11-15T15:02:07;57.03;;;31.20;;
7929;SDS011;4010;42.698;23.124;2022-11-15T15:04:40;52.73;;;31.70;;
7929;SDS011;4010;42.698;23.124;2022-11-15T15:07:06;63.47;;;33.13;;
7929;SDS011;4010;42.698;23.124;2022-11-15T15:09:33;66.80;;;35.27;;
7929;SDS011;4010;42.698;23.124;2022-11-15T15:12:00;75.93;;;36.43;;
7929;SDS011;4010;42.698;23.124;2022-11-15T15:14:28;68.83;;;33.87;;
7929;SDS011;4010;42.698;23.124;2022-11-15T15:16:55;59.13;;;30.73;;
7929;SDS011;4010;42.698;23.124;2022-11-15T15:19:21;55.57;;;32.10;;
7929;SDS011;4010;42.698;23.124;2022-11-15T15:21:48;73.13;;;37.40;;